Time;durP1;ratioP1;P1;durP2;ratioP2;P2;SDS_P1;SDS_P2;PMS_P1;PMS_P2;Temp;Humidity;BMP_temperature;BMP_pressure;BME280_temperature;BME280_humidity;BME280_pressure;Samples;Min_cycle;Max_cycle;Signal;HPM_P1;HPM_P2
2022/06/23 00:02:19;;;;;;;3.87;3.43;;;15.50;99.90;;;;;;4993609;28;20447;-83
2022/06/23 00:04:46;;;;;;;3.87;3.00;;;15.50;99.90;;;;;;4979631;28;20425;-83
2022/06/23 00:07:17;;;;;;;5.67;2.97;;;15.50;99.90;;;;;;5008287;28;21067;-85
2022/06/23 00:09:45;;;;;;;6.20;2.67;;;15.40;99.90;;;;;;4993514;28;20420;-86
2022/06/23 00:12:19;;;;;;;6.20;2.40;;;15.40;99.90;;;;;;4992162;28;20481;-83
2022/06/23 00:15:16;;;;;;;7.03;2.70;;;15.40;99.90;;;;;;4993582;28;20411;-83
2022/06/23 00:17:45;;;;;;;5.37;2.73;;;15.30;99.90;;;;;;4977719;28;20426;-83
2022/06/23 00:20:38;;;;;;;4.70;2.63;;;15.30;99.90;;;;;;4993193;28;20868;-83
2022/06/23 00:23:18;;;;;;;4.20;2.33;;;15.30;99.90;;;;;;4993087;28;20511;-86
2022/06/23 00:26:11;;;;;;;10.47;3.30;;;15.20;99.90;;;;;;4993323;28;20410;-84
2022/06/23 00:28:46;;;;;;;5.50;3.80;;;15.20;99.90;;;;;;4993120;28;20488;-83
2022/06/23 00:31:26;;;;;;;3.90;3.30;;;15.10;99.90;;;;;;4996474;28;20434;-83
2022/06/23 00:33:53;;;;;;;5.23;3.37;;;15.10;99.90;;;;;;4997189;28;20407;-84
2022/06/23 00:36:30;;;;;;;4.20;2.77;;;15.10;99.90;;;;;;4997062;28;20404;-86
2022/06/23 00:38:56;;;;;;;5.10;3.50;;;15.10;99.90;;;;;;4997131;28;20779;-86
2022/06/23 00:41:29;;;;;;;4.10;3.63;;;15.00;99.90;;;;;;4996850;28;20409;-84
2022/06/23 00:44:01;;;;;;;3.60;2.90;;;15.00;99.90;;;;;;4996919;28;20172;-84
2022/06/23 00:46:35;;;;;;;7.50;3.20;;;14.90;99.90;;;;;;4996774;28;20521;-83
2022/06/23 00:49:11;;;;;;;5.50;3.50;;;14.90;99.90;;;;;;4996771;28;20506;-85
2022/06/23 00:51:43;;;;;;;5.70;3.20;;;14.90;99.90;;;;;;4996474;28;20486;-85
2022/06/23 00:54:22;;;;;;;4.70;3.53;;;14.80;99.90;;;;;;4995266;28;20482;-83
2022/06/23 00:57:13;;;;;;;4.60;2.57;;;14.80;99.90;;;;;;4996695;28;20906;-83
2022/06/23 00:59:48;;;;;;;4.80;3.20;;;14.80;99.90;;;;;;4996675;28;20505;-86
2022/06/23 01:02:23;;;;;;;3.83;3.00;;;14.70;99.90;;;;;;5011632;28;21119;-86
2022/06/23 01:04:56;;;;;;;6.60;3.57;;;14.70;99.90;;;;;;5011658;28;20432;-85
2022/06/23 01:07:35;;;;;;;5.80;3.63;;;14.70;99.90;;;;;;4995990;28;20470;-85
2022/06/23 01:10:24;;;;;;;8.73;3.43;;;14.70;99.90;;;;;;4996439;28;20453;-83
2022/06/23 01:13:23;;;;;;;4.40;3.60;;;14.70;99.90;;;;;;5011394;28;20415;-83
2022/06/23 01:15:56;;;;;;;4.30;3.90;;;14.70;99.90;;;;;;4996264;28;20419;-83
2022/06/23 01:18:30;;;;;;;5.57;4.30;;;14.70;99.90;;;;;;4996166;28;20423;-86
2022/06/23 01:21:12;;;;;;;6.13;4.10;;;14.60;99.90;;;;;;4996153;28;20408;-83
2022/06/23 01:24:18;;;;;;;5.50;3.33;;;14.60;99.90;;;;;;4995912;28;20415;-85
2022/06/23 01:27:07;;;;;;;5.00;3.57;;;14.60;99.90;;;;;;4996023;28;20472;-84
2022/06/23 01:29:50;;;;;;;5.63;3.70;;;14.50;99.90;;;;;;4995991;28;20462;-85
2022/06/23 01:32:45;;;;;;;4.83;3.57;;;14.50;99.90;;;;;;4996024;28;20827;-83
2022/06/23 01:35:34;;;;;;;5.47;4.83;;;14.50;99.90;;;;;;5011111;28;20424;-83
2022/06/23 01:38:17;;;;;;;4.70;3.73;;;14.40;99.90;;;;;;4994350;28;20819;-84
2022/06/23 01:40:46;;;;;;;5.73;4.57;;;14.40;99.90;;;;;;4994669;28;20879;-85
2022/06/23 01:43:22;;;;;;;6.57;4.50;;;14.40;99.90;;;;;;4995977;28;20559;-84
2022/06/23 01:45:55;;;;;;;6.27;4.07;;;14.40;99.90;;;;;;4994505;28;20420;-84
2022/06/23 01:48:53;;;;;;;6.00;4.30;;;14.40;99.90;;;;;;4994405;28;20831;-84
2022/06/23 01:51:38;;;;;;;6.43;4.10;;;14.40;99.90;;;;;;4995272;28;20411;-85
2022/06/23 01:54:19;;;;;;;7.77;4.37;;;14.30;99.90;;;;;;4995637;28;20903;-85
2022/06/23 01:57:07;;;;;;;7.20;4.43;;;14.30;99.90;;;;;;4995602;28;20414;-85
2022/06/23 01:59:52;;;;;;;10.53;4.67;;;14.30;99.90;;;;;;4995435;28;20426;-84
2022/06/23 02:02:26;;;;;;;7.53;3.73;;;14.30;99.90;;;;;;4995419;28;20410;-84
2022/06/23 02:05:12;;;;;;;6.80;5.10;;;14.20;99.90;;;;;;4995396;28;20411;-83
2022/06/23 02:07:40;;;;;;;5.80;4.17;;;14.20;99.90;;;;;;4994920;28;20475;-83
2022/06/23 02:10:27;;;;;;;6.73;3.60;;;14.20;99.90;;;;;;4995273;28;20416;-85
2022/06/23 02:13:01;;;;;;;5.47;3.57;;;14.20;99.90;;;;;;4995176;28;20422;-84
2022/06/23 02:15:51;;;;;;;7.00;4.13;;;14.10;99.90;;;;;;4995296;28;20819;-85
2022/06/23 02:18:28;;;;;;;4.93;4.43;;;14.10;99.90;;;;;;4994015;28;20437;-84
2022/06/23 02:20:57;;;;;;;7.30;5.50;;;14.10;99.90;;;;;;4995127;28;21003;-85
2022/06/23 02:23:31;;;;;;;6.70;4.60;;;14.10;99.90;;;;;;4993464;28;20806;-84
2022/06/23 02:26:26;;;;;;;8.50;5.13;;;14.10;99.90;;;;;;4994918;28;20409;-83
2022/06/23 02:28:59;;;;;;;5.57;3.83;;;14.00;99.90;;;;;;4978925;28;20490;-82
2022/06/23 02:31:41;;;;;;;7.27;5.23;;;14.00;99.90;;;;;;4993581;28;20414;-83
2022/06/23 02:34:23;;;;;;;5.93;4.73;;;14.00;99.90;;;;;;4992762;28;20450;-82
2022/06/23 02:37:19;;;;;;;6.93;4.17;;;14.00;99.90;;;;;;4994469;28;20819;-83
2022/06/23 02:39:49;;;;;;;5.07;3.60;;;14.00;99.90;;;;;;4994746;28;20926;-82
2022/06/23 02:42:31;;;;;;;7.37;4.10;;;14.00;99.90;;;;;;4994608;28;20429;-84
2022/06/23 02:45:22;;;;;;;5.93;4.13;;;14.00;99.90;;;;;;4994632;28;20417;-83
2022/06/23 02:48:47;;;;;;;5.33;4.17;;;13.90;99.90;;;;;;4994372;28;20463;-83
2022/06/23 02:51:50;;;;;;;4.23;3.83;;;13.90;99.90;;;;;;4953424;29;20409;-82
2022/06/23 02:55:06;;;;;;;5.50;3.70;;;13.80;99.90;;;;;;4953393;29;20450;-83
2022/06/23 02:57:40;;;;;;;4.43;4.03;;;13.80;99.90;;;;;;4993146;28;20425;-83
2022/06/23 03:00:19;;;;;;;4.80;3.57;;;13.80;99.90;;;;;;4994418;28;20429;-83
2022/06/23 03:03:22;;;;;;;4.17;3.53;;;13.70;99.90;;;;;;4994284;28;20791;-83
2022/06/23 03:06:04;;;;;;;7.90;4.40;;;13.70;99.90;;;;;;4994170;28;20927;-83
2022/06/23 03:09:04;;;;;;;5.33;4.80;;;13.70;99.90;;;;;;4994188;28;20870;-84
2022/06/23 03:11:54;;;;;;;4.63;3.37;;;13.70;99.90;;;;;;4981028;28;20428;-84
2022/06/23 03:14:35;;;;;;;6.30;4.57;;;13.70;99.90;;;;;;4986392;28;20472;-83
2022/06/23 03:17:11;;;;;;;5.23;4.50;;;13.70;99.90;;;;;;4972828;28;20439;-83
2022/06/23 03:19:42;;;;;;;7.37;4.37;;;13.70;99.90;;;;;;4973445;28;20976;-83
2022/06/23 03:22:17;;;;;;;7.77;4.63;;;13.70;99.90;;;;;;4974304;28;20408;-85
2022/06/23 03:24:58;;;;;;;8.10;5.27;;;13.70;99.90;;;;;;4974552;28;20821;-84
2022/06/23 03:27:32;;;;;;;5.70;4.80;;;13.80;99.90;;;;;;4974407;28;20474;-84
2022/06/23 03:30:20;;;;;;;6.70;5.73;;;13.80;99.90;;;;;;4973673;28;20466;-83
2022/06/23 03:32:51;;;;;;;7.13;5.23;;;13.90;99.90;;;;;;4973781;28;20419;-83
2022/06/23 03:35:34;;;;;;;8.37;5.80;;;13.90;99.90;;;;;;4973766;28;20916;-84
2022/06/23 03:41:36;;;;;;;8.37;5.67;;;13.90;99.90;;;;;;4973339;28;20407;-83
2022/06/23 03:44:14;;;;;;;8.77;5.90;;;14.00;99.90;;;;;;4973862;28;20415;-83
2022/06/23 03:47:12;;;;;;;6.50;5.13;;;14.00;99.90;;;;;;4973480;28;20466;-83
2022/06/23 03:49:43;;;;;;;6.80;5.53;;;14.10;99.90;;;;;;4988569;28;20802;-84
2022/06/23 03:52:36;;;;;;;7.80;5.43;;;14.10;99.90;;;;;;4973085;28;20408;-83
2022/06/23 03:55:25;;;;;;;5.63;3.87;;;14.10;99.90;;;;;;4973574;28;20481;-84
2022/06/23 03:58:01;;;;;;;6.50;4.60;;;14.20;99.90;;;;;;4969972;28;20431;-84
2022/06/23 04:00:33;;;;;;;7.40;5.47;;;14.20;99.90;;;;;;4988256;28;20423;-85
2022/06/23 04:03:32;;;;;;;6.63;4.87;;;14.20;99.90;;;;;;4973376;28;20454;-85
2022/06/23 04:06:18;;;;;;;7.43;5.10;;;14.30;99.90;;;;;;4956336;28;20430;-84
2022/06/23 04:09:21;;;;;;;9.77;5.40;;;14.40;99.90;;;;;;4975100;28;20435;-84
2022/06/23 04:12:11;;;;;;;8.00;5.30;;;14.50;99.90;;;;;;4965716;28;20430;-84
2022/06/23 04:14:51;;;;;;;8.47;5.57;;;14.60;99.90;;;;;;4976637;28;20429;-83
2022/06/23 04:17:25;;;;;;;6.60;5.23;;;14.70;99.90;;;;;;4976474;28;20418;-83
2022/06/23 04:19:56;;;;;;;7.47;5.77;;;14.70;99.90;;;;;;4991599;28;20435;-83
2022/06/23 04:22:26;;;;;;;7.30;5.83;;;14.80;99.90;;;;;;4976208;28;20434;-84
2022/06/23 04:24:57;;;;;;;6.90;5.67;;;14.90;99.90;;;;;;4976455;28;20459;-84
2022/06/23 04:27:32;;;;;;;5.90;4.70;;;15.00;99.90;;;;;;4976355;28;20577;-83
2022/06/23 04:30:27;;;;;;;7.37;5.70;;;15.10;99.90;;;;;;5070408;28;20563;-86
2022/06/23 04:32:55;;;;;;;8.33;5.17;;;15.10;99.90;;;;;;5070366;28;20414;-85
2022/06/23 04:35:28;;;;;;;10.20;6.27;;;15.20;99.90;;;;;;5070162;28;20982;-85
2022/06/23 04:38:06;;;;;;;8.17;5.90;;;15.20;99.90;;;;;;5069913;28;20404;-85
2022/06/23 04:40:45;;;;;;;10.03;6.07;;;15.30;99.90;;;;;;5070234;28;20419;-86
2022/06/23 04:43:35;;;;;;;8.60;5.50;;;15.40;99.90;;;;;;5068830;28;20547;-86
2022/06/23 04:46:12;;;;;;;10.07;6.37;;;15.50;99.90;;;;;;5070078;28;20422;-86
2022/06/23 04:48:54;;;;;;;7.60;5.20;;;15.50;99.90;;;;;;5069981;28;20446;-86
2022/06/23 04:51:31;;;;;;;8.97;6.13;;;15.50;99.90;;;;;;5069516;28;20523;-86
2022/06/23 04:54:02;;;;;;;11.20;6.50;;;15.50;99.90;;;;;;5069936;28;20409;-84
2022/06/23 04:56:37;;;;;;;8.73;5.23;;;15.50;99.90;;;;;;5068769;28;20920;-85
2022/06/23 04:59:31;;;;;;;6.67;4.70;;;15.50;99.90;;;;;;5069946;28;20850;-85
2022/06/23 05:02:01;;;;;;;4.87;4.37;;;15.50;99.90;;;;;;5068440;28;20420;-85
2022/06/23 05:04:36;;;;;;;8.13;4.60;;;15.60;99.90;;;;;;5069790;28;20424;-85
2022/06/23 05:07:16;;;;;;;5.50;4.90;;;15.70;99.90;;;;;;5069234;28;20419;-85
2022/06/23 05:09:46;;;;;;;6.40;4.53;;;15.80;99.90;;;;;;5069657;28;20792;-85
2022/06/23 05:12:17;;;;;;;11.07;4.20;;;15.90;99.90;;;;;;5069574;28;20411;-85
2022/06/23 05:14:50;;;;;;;7.23;4.47;;;16.10;99.90;;;;;;5069529;28;20420;-85
2022/06/23 05:17:24;;;;;;;8.10;4.90;;;16.20;99.90;;;;;;5068206;28;20417;-85
2022/06/23 05:19:57;;;;;;;6.90;4.50;;;16.30;99.90;;;;;;5068080;28;20423;-85
2022/06/23 05:22:35;;;;;;;5.90;4.33;;;16.40;99.90;;;;;;5067607;28;20498;-85
2022/06/23 05:25:33;;;;;;;4.57;3.77;;;16.60;99.90;;;;;;5069370;28;20445;-86
2022/06/23 05:28:01;;;;;;;6.53;3.93;;;16.70;99.90;;;;;;5066692;28;20462;-85
2022/06/23 05:30:29;;;;;;;4.70;3.30;;;16.90;99.90;;;;;;5069094;28;20420;-85
2022/06/23 05:33:01;;;;;;;4.53;3.37;;;17.10;99.90;;;;;;5069135;28;20459;-84
2022/06/23 05:35:42;;;;;;;7.93;2.60;;;17.40;99.90;;;;;;5069037;28;20739;-83
2022/06/23 05:38:19;;;;;;;4.43;2.43;;;17.70;99.90;;;;;;5067745;28;20448;-84
2022/06/23 05:41:02;;;;;;;4.40;2.70;;;18.10;99.90;;;;;;5060731;28;20421;-84
2022/06/23 05:43:29;;;;;;;4.37;3.33;;;18.30;1.00;;;;;;5055705;28;20461;-84
2022/06/23 05:45:59;;;;;;;4.90;3.17;;;18.30;1.00;;;;;;5054735;28;20510;-85
2022/06/23 05:48:46;;;;;;;5.67;3.80;;;18.20;1.00;;;;;;5054260;28;20475;-84
2022/06/23 05:51:21;;;;;;;5.30;3.07;;;18.30;9.60;;;;;;5055089;28;20468;-85
2022/06/23 05:54:05;;;;;;;4.17;2.60;;;18.40;1.00;;;;;;5054087;28;20432;-87
2022/06/23 05:56:49;;;;;;;5.23;3.07;;;18.50;1.00;;;;;;5055555;28;20441;-85
2022/06/23 05:59:49;;;;;;;4.30;3.80;;;18.80;1.00;;;;;;5055495;28;20410;-87
2022/06/23 06:02:33;;;;;;;6.13;2.70;;;19.20;1.00;;;;;;5054106;28;20433;-86
2022/06/23 06:05:00;;;;;;;6.00;3.63;;;19.60;1.00;;;;;;5055466;28;20492;-84
2022/06/23 06:07:32;;;;;;;4.47;2.87;;;19.90;99.90;;;;;;5054878;28;20502;-85
2022/06/23 06:09:58;;;;;;;4.43;2.43;;;20.00;99.90;;;;;;5055259;28;20460;-85
2022/06/23 06:12:31;;;;;;;2.50;2.30;;;20.40;99.90;;;;;;5059617;28;20417;-85
2022/06/23 06:15:26;;;;;;;5.57;2.60;;;20.80;99.90;;;;;;5058097;28;20179;-88
2022/06/23 06:17:54;;;;;;;4.03;1.80;;;21.00;19.90;;;;;;5055247;28;20425;-84
2022/06/23 06:20:24;;;;;;;3.40;2.40;;;21.30;99.90;;;;;;5053850;28;20779;-87
2022/06/23 06:23:03;;;;;;;8.23;2.70;;;21.60;99.90;;;;;;5053826;28;20419;-87
2022/06/23 06:25:34;;;;;;;4.73;2.30;;;21.50;99.90;;;;;;5055155;28;20412;-87
2022/06/23 06:28:22;;;;;;;11.03;3.20;;;21.30;1.00;;;;;;5053314;28;20818;-87
2022/06/23 06:30:50;;;;;;;2.67;2.47;;;21.00;99.90;;;;;;5054752;28;20426;-85
2022/06/23 06:33:33;;;;;;;3.60;2.60;;;21.20;1.00;;;;;;5054914;28;20411;-87
2022/06/23 06:35:58;;;;;;;4.07;2.77;;;21.20;1.00;;;;;;5054578;28;20415;-87
2022/06/23 06:38:25;;;;;;;5.30;3.07;;;21.40;52.60;;;;;;5053625;28;20432;-87
2022/06/23 06:40:57;;;;;;;2.90;2.00;;;21.50;99.90;;;;;;5054688;28;20165;-88
2022/06/23 06:43:29;;;;;;;4.13;2.50;;;21.50;99.90;;;;;;5054575;28;20402;-86
2022/06/23 06:45:55;;;;;;;5.37;2.63;;;21.50;16.20;;;;;;5054874;28;20739;-87
2022/06/23 06:48:23;;;;;;;4.17;2.57;;;21.60;99.90;;;;;;5054504;28;20490;-87
2022/06/23 06:50:53;;;;;;;3.40;1.93;;;22.20;99.90;;;;;;5054423;28;20415;-88
2022/06/23 06:53:27;;;;;;;5.33;2.77;;;22.60;99.90;;;;;;5052161;28;20409;-87
2022/06/23 06:56:35;;;;;;;4.17;2.20;;;22.70;1.00;;;;;;5054524;28;20443;-86
2022/06/23 06:59:30;;;;;;;2.20;1.90;;;23.20;1.00;;;;;;5048280;28;20462;-88
2022/06/23 07:02:04;;;;;;;3.70;2.00;;;23.50;99.90;;;;;;5050833;28;20416;-87
2022/06/23 07:04:38;;;;;;;4.23;2.40;;;24.00;99.90;;;;;;5054246;28;20441;-87
2022/06/23 07:07:13;;;;;;;4.60;2.67;;;24.00;99.90;;;;;;5052682;28;20832;-87
2022/06/23 07:09:50;;;;;;;3.77;1.93;;;24.50;99.90;;;;;;5054134;28;20504;-86
2022/06/23 07:12:40;;;;;;;3.63;1.90;;;25.10;99.90;;;;;;5054163;28;20407;-87
2022/06/23 07:15:31;;;;;;;4.77;1.90;;;26.10;99.90;;;;;;5054136;28;20411;-85
2022/06/23 07:18:36;;;;;;;4.50;2.07;;;26.90;99.10;;;;;;5054011;28;20419;-85
2022/06/23 07:21:17;;;;;;;2.90;1.70;;;27.60;43.70;;;;;;5052304;28;20942;-86
2022/06/23 07:24:02;;;;;;;3.30;1.87;;;27.60;21.20;;;;;;5053929;28;20942;-85
2022/06/23 07:26:46;;;;;;;2.30;1.47;;;27.30;20.50;;;;;;5052686;28;20478;-85
2022/06/23 07:29:30;;;;;;;3.63;1.83;;;27.90;15.30;;;;;;5053555;28;20977;-87
2022/06/23 07:32:05;;;;;;;4.40;1.43;;;28.30;1.00;;;;;;5053856;28;20499;-86
2022/06/23 07:34:36;;;;;;;3.17;1.40;;;29.10;5.30;;;;;;5052607;28;20526;-84
2022/06/23 07:37:29;;;;;;;2.53;1.30;;;30.10;1.00;;;;;;5053386;28;20412;-83
2022/06/23 07:40:07;;;;;;;3.73;1.70;;;30.40;1.00;;;;;;5050463;28;20420;-84
2022/06/23 07:42:41;;;;;;;7.47;2.23;;;30.80;1.00;;;;;;5053541;28;20511;-83
2022/06/23 07:45:16;;;;;;;3.47;1.80;;;31.50;1.00;;;;;;5052156;28;20416;-83
2022/06/23 07:47:49;;;;;;;2.17;1.77;;;32.00;1.00;;;;;;5053397;28;20467;-83
2022/06/23 07:50:14;;;;;;;3.10;1.83;;;31.10;1.00;;;;;;5052981;28;20962;-83
2022/06/23 07:52:42;;;;;;;2.70;1.90;;;30.60;1.00;;;;;;5053270;28;20462;-83
2022/06/23 07:55:36;;;;;;;4.97;2.00;;;29.80;1.00;;;;;;5053335;28;20185;-84
2022/06/23 07:58:01;;;;;;;2.13;1.50;;;30.20;1.00;;;;;;5052007;28;20432;-84
2022/06/23 08:00:29;;;;;;;4.30;2.27;;;31.40;1.00;;;;;;5053266;28;20979;-84
2022/06/23 08:03:09;;;;;;;4.03;2.63;;;31.30;1.00;;;;;;5051688;28;20547;-84
2022/06/23 08:05:39;;;;;;;3.60;2.00;;;31.10;1.00;;;;;;5052847;28;20407;-84
2022/06/23 08:08:10;;;;;;;4.20;2.43;;;30.10;1.00;;;;;;5053064;28;20455;-84
2022/06/23 08:10:36;;;;;;;5.50;2.13;;;30.70;1.00;;;;;;5053183;28;20427;-84
2022/06/23 08:13:07;;;;;;;3.80;2.10;;;31.10;1.00;;;;;;5053107;28;20416;-84
2022/06/23 08:18:41;;;;;;;4.77;2.50;;;33.60;1.00;;;;;;5053326;28;20412;-84
2022/06/23 08:21:24;;;;;;;5.37;2.37;;;33.20;1.00;;;;;;5052711;28;20821;-83
2022/06/23 08:24:04;;;;;;;3.57;2.40;;;33.20;1.00;;;;;;5053001;28;20404;-84
2022/06/23 08:26:30;;;;;;;3.47;2.10;;;33.70;1.00;;;;;;5052953;28;20503;-85
2022/06/23 08:29:00;;;;;;;2.40;1.63;;;34.10;1.00;;;;;;5052643;28;20472;-83
2022/06/23 08:31:27;;;;;;;2.13;1.40;;;33.90;1.00;;;;;;5052901;28;20438;-84
2022/06/23 08:33:53;;;;;;;3.63;1.80;;;33.00;1.00;;;;;;5052893;28;20412;-84
2022/06/23 08:36:23;;;;;;;4.10;2.43;;;32.50;1.00;;;;;;5052487;28;20465;-84
2022/06/23 08:39:05;;;;;;;5.47;2.07;;;33.40;1.00;;;;;;5052902;28;20519;-84
2022/06/23 08:41:56;;;;;;;4.80;2.27;;;34.10;1.00;;;;;;5052857;28;20419;-85
2022/06/23 08:44:37;;;;;;;7.07;2.90;;;34.50;1.00;;;;;;5052856;28;20415;-85
2022/06/23 08:47:19;;;;;;;3.20;1.87;;;35.70;1.00;;;;;;5052865;28;20419;-85
2022/06/23 08:49:54;;;;;;;3.30;2.67;;;37.00;1.00;;;;;;5052754;28;20804;-84
2022/06/23 08:52:49;;;;;;;4.10;1.80;;;37.90;1.00;;;;;;5052407;28;20404;-84
2022/06/23 08:55:27;;;;;;;4.10;2.37;;;38.70;1.00;;;;;;5052695;28;20412;-84
2022/06/23 08:58:01;;;;;;;3.90;1.93;;;39.90;1.00;;;;;;5052666;28;20436;-84
2022/06/23 09:00:41;;;;;;;3.00;2.00;;;38.80;1.00;;;;;;5051398;28;20439;-85
2022/06/23 09:03:35;;;;;;;2.17;1.67;;;39.20;1.00;;;;;;5052685;28;20422;-84
2022/06/23 09:06:20;;;;;;;2.43;2.07;;;40.10;1.00;;;;;;5051062;28;20778;-84
2022/06/23 09:09:00;;;;;;;3.47;2.53;;;41.20;1.00;;;;;;5051315;28;20797;-86
2022/06/23 09:11:33;;;;;;;3.60;2.20;;;39.50;1.00;;;;;;5052593;28;20404;-84
2022/06/23 09:14:17;;;;;;;2.50;2.30;;;40.20;1.00;;;;;;5051390;28;20877;-85
2022/06/23 09:17:13;;;;;;;4.50;2.03;;;39.00;1.00;;;;;;5054413;28;20846;-85
2022/06/23 09:20:06;;;;;;;3.13;2.20;;;38.20;1.00;;;;;;5056150;28;20548;-85
2022/06/23 09:22:37;;;;;;;2.70;2.10;;;38.60;1.00;;;;;;5056296;28;20404;-84
2022/06/23 09:25:30;;;;;;;2.20;1.93;;;38.70;1.00;;;;;;5056108;28;20760;-84
2022/06/23 09:28:36;;;;;;;4.93;2.47;;;37.40;1.00;;;;;;5054618;28;20423;-84
2022/06/23 09:31:13;;;;;;;2.30;2.00;;;36.10;1.00;;;;;;5033931;28;20432;-84
2022/06/23 09:34:05;;;;;;;3.27;1.77;;;37.00;1.00;;;;;;5017496;28;20421;-84
2022/06/23 09:37:14;;;;;;;8.07;2.67;;;38.20;1.00;;;;;;5049161;28;20431;-85
2022/06/23 09:40:20;;;;;;;2.63;1.97;;;39.90;1.00;;;;;;5033543;28;20480;-85
2022/06/23 09:43:09;;;;;;;2.57;1.37;;;39.60;1.00;;;;;;4994396;28;20411;-86
2022/06/23 09:45:51;;;;;;;2.80;1.70;;;39.50;1.00;;;;;;5029573;28;20912;-87
2022/06/23 09:49:06;;;;;;;2.93;1.60;;;39.30;1.00;;;;;;5050309;28;20408;-86
2022/06/23 09:51:57;;;;;;;3.17;1.60;;;39.60;1.00;;;;;;5053974;28;20455;-85
2022/06/23 09:54:37;;;;;;;2.80;1.73;;;40.20;1.00;;;;;;5055696;28;20916;-86
2022/06/23 09:57:31;;;;;;;2.03;1.30;;;40.00;1.00;;;;;;5055596;28;20866;-84
2022/06/23 10:00:19;;;;;;;2.13;1.63;;;41.10;1.00;;;;;;5055497;28;20525;-88
2022/06/23 10:02:44;;;;;;;3.47;1.10;;;39.80;1.00;;;;;;5055447;28;20416;-86
2022/06/23 10:05:25;;;;;;;2.73;1.73;;;40.00;1.00;;;;;;5055054;28;20412;-85
2022/06/23 10:08:27;;;;;;;2.67;1.53;;;41.70;1.00;;;;;;5055438;28;20641;-84
2022/06/23 10:11:14;;;;;;;2.30;1.53;;;43.10;1.00;;;;;;5044168;28;20511;-84
2022/06/23 10:13:59;;;;;;;2.60;2.40;;;44.30;1.00;;;;;;5055200;28;20412;-86
2022/06/23 10:16:39;;;;;;;2.40;2.20;;;44.70;1.00;;;;;;5055116;28;20400;-86
2022/06/23 10:19:27;;;;;;;2.37;2.17;;;45.10;1.00;;;;;;5053867;28;20834;-83
2022/06/23 10:22:26;;;;;;;2.10;1.77;;;42.20;1.00;;;;;;5054806;28;20411;-83
2022/06/23 10:25:28;;;;;;;2.37;2.00;;;41.40;1.00;;;;;;5053670;28;20499;-86
2022/06/23 10:28:11;;;;;;;2.80;1.33;;;43.00;1.00;;;;;;5054573;28;20773;-87
2022/06/23 10:30:51;;;;;;;2.70;1.63;;;43.90;1.00;;;;;;5054862;28;20415;-85
2022/06/23 10:33:35;;;;;;;2.90;1.40;;;44.10;1.00;;;;;;5054971;28;20439;-86
2022/06/23 10:36:19;;;;;;;1.40;1.30;;;44.70;1.00;;;;;;5054583;28;20412;-86
2022/06/23 10:39:26;;;;;;;2.57;1.73;;;43.70;1.00;;;;;;5054775;28;20459;-86
2022/06/23 10:42:28;;;;;;;2.10;1.60;;;43.80;1.00;;;;;;5054382;28;20432;-85
2022/06/23 10:45:28;;;;;;;2.80;1.70;;;45.20;1.00;;;;;;5054728;28;20422;-86
2022/06/23 10:48:49;;;;;;;2.17;1.43;;;45.60;1.00;;;;;;5054748;28;20865;-86
2022/06/23 10:51:51;;;;;;;1.60;1.50;;;45.40;1.00;;;;;;5032140;28;21349;-86
2022/06/23 10:54:45;;;;;;;2.00;1.83;;;44.10;1.00;;;;;;5015909;28;20522;-87
2022/06/23 10:57:44;;;;;;;4.53;1.80;;;43.20;1.00;;;;;;5049113;28;20424;-85
2022/06/23 11:00:19;;;;;;;1.77;1.43;;;44.20;1.00;;;;;;5053037;28;20494;-87
2022/06/23 11:03:11;;;;;;;2.03;1.50;;;45.50;1.00;;;;;;5053132;28;20411;-84
2022/06/23 11:06:03;;;;;;;1.93;1.50;;;46.20;1.00;;;;;;5054015;28;20415;-85
2022/06/23 11:08:37;;;;;;;2.47;1.70;;;46.90;1.00;;;;;;5054162;28;20415;-84
2022/06/23 11:11:08;;;;;;;2.17;1.67;;;47.40;1.00;;;;;;5052900;28;20432;-84
2022/06/23 11:13:58;;;;;;;3.10;1.50;;;47.00;1.00;;;;;;5054080;28;20409;-84
2022/06/23 11:16:57;;;;;;;2.20;1.80;;;44.10;1.00;;;;;;5054091;28;20412;-84
2022/06/23 11:19:45;;;;;;;1.70;1.60;;;42.90;1.00;;;;;;5053948;28;20499;-85
2022/06/23 11:22:46;;;;;;;2.60;1.40;;;44.40;1.00;;;;;;5054028;28;20400;-86
2022/06/23 11:25:24;;;;;;;1.87;1.77;;;44.90;1.00;;;;;;5046687;28;20412;-84
2022/06/23 11:28:04;;;;;;;1.77;1.67;;;45.50;1.00;;;;;;5053859;28;20407;-85
2022/06/23 11:30:33;;;;;;;2.93;1.87;;;46.90;1.00;;;;;;5052489;28;20438;-86
2022/06/23 11:33:31;;;;;;;4.50;1.90;;;46.80;1.00;;;;;;5053473;28;20420;-85
2022/06/23 11:36:14;;;;;;;2.70;1.57;;;47.20;1.00;;;;;;5053294;28;20420;-84
2022/06/23 11:38:51;;;;;;;2.20;1.80;;;47.00;1.00;;;;;;5053110;28;20471;-85
2022/06/23 11:42:06;;;;;;;2.33;1.70;;;46.80;1.00;;;;;;5052348;28;20419;-85
2022/06/23 11:44:59;;;;;;;3.90;2.20;;;47.90;1.00;;;;;;5053643;28;20745;-85
2022/06/23 11:47:38;;;;;;;3.93;1.70;;;47.10;1.00;;;;;;5053606;28;20498;-85
2022/06/23 11:50:28;;;;;;;2.53;2.33;;;47.20;1.00;;;;;;5051891;28;20503;-85
2022/06/23 11:53:09;;;;;;;2.80;1.60;;;48.10;1.00;;;;;;5052309;28;20420;-85
2022/06/23 11:55:52;;;;;;;2.53;1.93;;;47.10;1.00;;;;;;5052069;28;20415;-85
2022/06/23 11:58:22;;;;;;;2.63;1.80;;;47.20;1.00;;;;;;5052135;28;20423;-88
2022/06/23 12:00:55;;;;;;;2.00;1.90;;;45.90;1.00;;;;;;5053338;28;20470;-85
2022/06/23 12:03:57;;;;;;;2.27;1.80;;;45.90;1.00;;;;;;5053404;28;20504;-86
2022/06/23 12:06:37;;;;;;;2.70;1.60;;;47.20;1.00;;;;;;5053008;28;20877;-85
2022/06/23 12:09:22;;;;;;;2.20;2.03;;;47.90;1.00;;;;;;5053329;28;20422;-87
2022/06/23 12:11:48;;;;;;;2.10;1.90;;;48.40;1.00;;;;;;5053240;28;20415;-89
2022/06/23 12:14:16;;;;;;;2.77;2.50;;;46.10;1.00;;;;;;5053168;28;20792;-86
2022/06/23 12:16:57;;;;;;;4.40;2.40;;;46.50;1.00;;;;;;5053171;28;20408;-85
2022/06/23 12:19:46;;;;;;;1.60;1.50;;;46.40;1.00;;;;;;5052024;28;20474;-87
2022/06/23 12:22:33;;;;;;;2.30;2.10;;;47.30;1.00;;;;;;5050630;28;20427;-92
2022/06/23 12:25:28;;;;;;;2.30;2.03;;;47.90;1.00;;;;;;5051182;28;20507;-86
2022/06/23 12:28:08;;;;;;;2.80;2.30;;;48.10;1.00;;;;;;5051904;28;20777;-86
2022/06/23 12:30:43;;;;;;;2.10;1.80;;;48.00;1.00;;;;;;5051482;28;20435;-87
2022/06/23 12:33:41;;;;;;;2.47;2.10;;;48.90;1.00;;;;;;5052720;28;20416;-85
2022/06/23 12:36:15;;;;;;;3.20;2.50;;;48.50;1.00;;;;;;5052114;28;20423;-86
2022/06/23 12:38:50;;;;;;;2.40;2.10;;;48.50;1.00;;;;;;5052762;28;20447;-88
2022/06/23 12:41:27;;;;;;;3.80;2.37;;;48.60;1.00;;;;;;5052887;28;20403;-89
2022/06/23 12:43:57;;;;;;;2.40;2.30;;;49.50;1.00;;;;;;5052926;28;20947;-89
2022/06/23 12:46:44;;;;;;;2.57;2.00;;;48.80;1.00;;;;;;5051614;28;20427;-89
2022/06/23 12:49:19;;;;;;;2.50;2.30;;;49.10;1.00;;;;;;5051628;28;20415;-86
2022/06/23 12:52:06;;;;;;;3.03;2.10;;;50.00;1.00;;;;;;5055099;28;20919;-87
2022/06/23 12:54:55;;;;;;;3.03;2.07;;;49.50;1.00;;;;;;5044065;28;20916;-88
2022/06/23 12:57:46;;;;;;;2.33;2.13;;;48.70;1.00;;;;;;5056620;28;20416;-87
2022/06/23 13:00:18;;;;;;;1.83;1.73;;;48.50;1.00;;;;;;5056420;28;20966;-87
2022/06/23 13:02:50;;;;;;;5.00;2.53;;;48.80;1.00;;;;;;5056601;28;20404;-86
2022/06/23 13:05:45;;;;;;;2.70;2.50;;;49.40;1.00;;;;;;5056523;28;20811;-87
2022/06/23 13:08:17;;;;;;;3.27;2.17;;;49.90;1.00;;;;;;5055285;28;20431;-87
2022/06/23 13:10:52;;;;;;;1.90;1.80;;;49.10;1.00;;;;;;5055129;28;20427;-86
2022/06/23 13:13:27;;;;;;;2.60;2.13;;;49.30;1.00;;;;;;5056545;28;20763;-88
2022/06/23 13:16:13;;;;;;;1.83;1.63;;;48.50;1.00;;;;;;5055877;28;20793;-87
2022/06/23 13:19:11;;;;;;;2.07;1.73;;;49.00;1.00;;;;;;5055048;28;20499;-87
2022/06/23 13:21:39;;;;;;;3.63;1.80;;;48.10;1.00;;;;;;5056063;28;20411;-86
2022/06/23 13:24:08;;;;;;;2.33;1.83;;;48.30;1.00;;;;;;5056218;28;20572;-88
2022/06/23 13:26:41;;;;;;;3.00;1.60;;;48.60;1.00;;;;;;5056042;28;20474;-87
2022/06/23 13:29:12;;;;;;;2.90;1.80;;;48.80;1.00;;;;;;5056004;28;21019;-88
2022/06/23 13:32:08;;;;;;;2.40;2.20;;;47.90;1.00;;;;;;5054733;28;20427;-87
2022/06/23 13:34:46;;;;;;;2.80;1.90;;;48.00;1.00;;;;;;5055936;28;20411;-88
2022/06/23 13:37:12;;;;;;;1.70;1.60;;;44.20;1.00;;;;;;5056096;28;20816;-87
2022/06/23 13:40:11;;;;;;;1.70;1.30;;;45.20;1.00;;;;;;5055696;28;20526;-86
2022/06/23 13:42:54;;;;;;;2.30;1.93;;;46.80;1.00;;;;;;5051800;28;20404;-85
2022/06/23 13:45:56;;;;;;;1.80;1.70;;;48.00;1.00;;;;;;5053292;28;20434;-87
2022/06/23 13:48:49;;;;;;;2.27;1.90;;;45.10;1.00;;;;;;5029554;28;20436;-86
2022/06/23 13:51:34;;;;;;;3.00;1.47;;;45.00;1.00;;;;;;5035513;28;20409;-87
2022/06/23 13:54:06;;;;;;;2.37;1.87;;;45.90;1.00;;;;;;5051181;28;20955;-88
2022/06/23 13:56:58;;;;;;;2.80;1.53;;;45.20;1.00;;;;;;5035383;28;20432;-87
2022/06/23 13:59:35;;;;;;;2.00;1.80;;;42.80;1.00;;;;;;5035629;28;20468;-89
2022/06/23 14:02:32;;;;;;;2.37;1.90;;;40.70;1.00;;;;;;5034932;28;20417;-88
2022/06/23 14:05:21;;;;;;;1.20;0.90;;;38.60;1.00;;;;;;5033912;28;20417;-87
2022/06/23 14:07:58;;;;;;;2.60;1.33;;;37.60;1.00;;;;;;5035329;28;20409;-91
2022/06/23 14:10:44;;;;;;;1.33;1.00;;;37.10;1.00;;;;;;5052770;28;20777;-92
2022/06/23 14:13:19;;;;;;;3.60;1.43;;;36.20;1.00;;;;;;5054198;28;20503;-90
2022/06/23 14:15:52;;;;;;;2.00;1.17;;;35.30;1.00;;;;;;5054728;28;20408;-91